sensor_id;sensor_type;location;lat;lon;timestamp;temperature;humidity
28654;DHT22;24320;56.980;24.336;2023-10-19T00:01:23;2.50;99.90
28654;DHT22;24320;56.980;24.336;2023-10-19T00:03:52;2.30;99.90
28654;DHT22;24320;56.980;24.336;2023-10-19T00:06:23;2.30;99.90
28654;DHT22;24320;56.980;24.336;2023-10-19T00:08:50;2.20;99.90
28654;DHT22;24320;56.980;24.336;2023-10-19T00:11:24;2.20;99.90
28654;DHT22;24320;56.980;24.336;2023-10-19T00:13:53;2.10;99.90
28654;DHT22;24320;56.980;24.336;2023-10-19T00:16:24;2.20;99.90
28654;DHT22;24320;56.980;24.336;2023-10-19T00:19:01;2.10;99.90
28654;DHT22;24320;56.980;24.336;2023-10-19T00:21:30;2.20;99.90
28654;DHT22;24320;56.980;24.336;2023-10-19T00:24:03;2.20;99.90
28654;DHT22;24320;56.980;24.336;2023-10-19T00:26:31;2.20;99.90
28654;DHT22;24320;56.980;24.336;2023-10-19T00:28:58;2.20;99.90
28654;DHT22;24320;56.980;24.336;2023-10-19T00:31:30;2.20;99.90
28654;DHT22;24320;56.980;24.336;2023-10-19T00:34:01;2.20;99.90
28654;DHT22;24320;56.980;24.336;2023-10-19T00:36:30;2.20;99.90
28654;DHT22;24320;56.980;24.336;2023-10-19T00:38:58;2.20;99.90
28654;DHT22;24320;56.980;24.336;2023-10-19T00:41:27;2.10;99.90
28654;DHT22;24320;56.980;24.336;2023-10-19T00:43:59;2.10;99.90
28654;DHT22;24320;56.980;24.336;2023-10-19T00:46:38;2.10;99.90
28654;DHT22;24320;56.980;24.336;2023-10-19T00:49:10;2.00;99.90
28654;DHT22;24320;56.980;24.336;2023-10-19T00:51:42;2.00;99.90
28654;DHT22;24320;56.980;24.336;2023-10-19T00:54:25;1.90;99.90
28654;DHT22;24320;56.980;24.336;2023-10-19T00:56:59;1.80;99.90
28654;DHT22;24320;56.980;24.336;2023-10-19T00:59:31;1.70;99.90
28654;DHT22;24320;56.980;24.336;2023-10-19T01:02:02;1.70;99.90
28654;DHT22;24320;56.980;24.336;2023-10-19T01:04:48;1.60;99.90
28654;DHT22;24320;56.980;24.336;2023-10-19T01:07:32;1.50;99.90
28654;DHT22;24320;56.980;24.336;2023-10-19T01:10:07;1.40;99.90
28654;DHT22;24320;56.980;24.336;2023-10-19T01:12:55;1.40;99.90
28654;DHT22;24320;56.980;24.336;2023-10-19T01:15:22;1.40;99.90
28654;DHT22;24320;56.980;24.336;2023-10-19T01:17:57;1.30;99.90
28654;DHT22;24320;56.980;24.336;2023-10-19T01:20:29;1.30;99.90
28654;DHT22;24320;56.980;24.336;2023-10-19T01:23:07;1.30;99.90
28654;DHT22;24320;56.980;24.336;2023-10-19T01:25:48;1.30;99.90
28654;DHT22;24320;56.980;24.336;2023-10-19T01:28:22;1.20;99.90
28654;DHT22;24320;56.980;24.336;2023-10-19T01:30:55;1.30;99.90
28654;DHT22;24320;56.980;24.336;2023-10-19T01:33:22;1.30;99.90
28654;DHT22;24320;56.980;24.336;2023-10-19T01:35:50;1.30;99.90
28654;DHT22;24320;56.980;24.336;2023-10-19T01:38:35;1.30;99.90
28654;DHT22;24320;56.980;24.336;2023-10-19T01:41:07;1.30;99.90
28654;DHT22;24320;56.980;24.336;2023-10-19T01:43:44;1.30;99.90
28654;DHT22;24320;56.980;24.336;2023-10-19T01:46:13;1.30;99.90
28654;DHT22;24320;56.980;24.336;2023-10-19T01:48:50;1.40;99.90
28654;DHT22;24320;56.980;24.336;2023-10-19T01:51:24;1.40;99.90
28654;DHT22;24320;56.980;24.336;2023-10-19T01:53:56;1.40;99.90
28654;DHT22;24320;56.980;24.336;2023-10-19T01:56:24;1.40;99.90
28654;DHT22;24320;56.980;24.336;2023-10-19T01:58:51;1.40;99.90
28654;DHT22;24320;56.980;24.336;2023-10-19T02:01:19;1.50;99.90
28654;DHT22;24320;56.980;24.336;2023-10-19T02:03:48;1.50;99.90
28654;DHT22;24320;56.980;24.336;2023-10-19T02:06:28;1.50;99.90
28654;DHT22;24320;56.980;24.336;2023-10-19T02:09:09;1.50;99.90
28654;DHT22;24320;56.980;24.336;2023-10-19T02:12:15;1.60;99.90
28654;DHT22;24320;56.980;24.336;2023-10-19T02:14:45;1.60;99.90
28654;DHT22;24320;56.980;24.336;2023-10-19T02:17:12;1.60;99.90
28654;DHT22;24320;56.980;24.336;2023-10-19T02:19:42;1.60;99.90
28654;DHT22;24320;56.980;24.336;2023-10-19T02:22:10;1.70;99.90
28654;DHT22;24320;56.980;24.336;2023-10-19T02:24:39;1.70;99.90
28654;DHT22;24320;56.980;24.336;2023-10-19T02:27:06;1.70;99.90
28654;DHT22;24320;56.980;24.336;2023-10-19T02:32:06;1.80;99.90
28654;DHT22;24320;56.980;24.336;2023-10-19T02:34:33;1.80;99.90
28654;DHT22;24320;56.980;24.336;2023-10-19T02:37:02;1.80;99.90
28654;DHT22;24320;56.980;24.336;2023-10-19T02:39:29;1.90;99.90
28654;DHT22;24320;56.980;24.336;2023-10-19T02:41:57;1.90;99.90
28654;DHT22;24320;56.980;24.336;2023-10-19T02:44:28;1.90;99.90
28654;DHT22;24320;56.980;24.336;2023-10-19T02:46:57;1.90;99.90
28654;DHT22;24320;56.980;24.336;2023-10-19T02:49:28;1.90;99.90
28654;DHT22;24320;56.980;24.336;2023-10-19T02:51:57;2.00;99.90
28654;DHT22;24320;56.980;24.336;2023-10-19T02:54:31;2.00;99.90
28654;DHT22;24320;56.980;24.336;2023-10-19T02:57:02;2.00;99.90
28654;DHT22;24320;56.980;24.336;2023-10-19T02:59:33;2.00;99.90
28654;DHT22;24320;56.980;24.336;2023-10-19T03:02:01;2.10;99.90
28654;DHT22;24320;56.980;24.336;2023-10-19T03:04:44;2.00;99.90
28654;DHT22;24320;56.980;24.336;2023-10-19T03:07:13;2.00;99.90
28654;DHT22;24320;56.980;24.336;2023-10-19T03:09:42;2.00;99.90
28654;DHT22;24320;56.980;24.336;2023-10-19T03:12:16;2.00;99.90
28654;DHT22;24320;56.980;24.336;2023-10-19T03:14:44;2.00;99.90
28654;DHT22;24320;56.980;24.336;2023-10-19T03:17:15;2.00;99.90
28654;DHT22;24320;56.980;24.336;2023-10-19T03:19:43;2.00;99.90
28654;DHT22;24320;56.980;24.336;2023-10-19T03:22:10;2.00;99.90
28654;DHT22;24320;56.980;24.336;2023-10-19T03:24:38;2.00;99.90
28654;DHT22;24320;56.980;24.336;2023-10-19T03:27:15;2.00;99.90
28654;DHT22;24320;56.980;24.336;2023-10-19T03:29:45;2.10;99.90
28654;DHT22;24320;56.980;24.336;2023-10-19T03:32:14;2.00;99.90
28654;DHT22;24320;56.980;24.336;2023-10-19T03:34:43;2.10;99.90
28654;DHT22;24320;56.980;24.336;2023-10-19T03:37:15;2.10;99.90
28654;DHT22;24320;56.980;24.336;2023-10-19T03:39:44;2.00;99.90
28654;DHT22;24320;56.980;24.336;2023-10-19T03:42:13;2.10;99.90
28654;DHT22;24320;56.980;24.336;2023-10-19T03:44:43;2.10;99.90
28654;DHT22;24320;56.980;24.336;2023-10-19T03:47:16;2.10;99.90
28654;DHT22;24320;56.980;24.336;2023-10-19T03:50:03;2.10;99.90
28654;DHT22;24320;56.980;24.336;2023-10-19T03:52:37;2.10;99.90
28654;DHT22;24320;56.980;24.336;2023-10-19T03:55:05;2.10;99.90
28654;DHT22;24320;56.980;24.336;2023-10-19T03:57:38;2.10;99.90
28654;DHT22;24320;56.980;24.336;2023-10-19T04:00:14;2.10;99.90
28654;DHT22;24320;56.980;24.336;2023-10-19T04:02:52;2.10;99.90
28654;DHT22;24320;56.980;24.336;2023-10-19T04:05:23;2.10;99.90
28654;DHT22;24320;56.980;24.336;2023-10-19T04:07:50;2.10;99.90
28654;DHT22;24320;56.980;24.336;2023-10-19T04:10:19;2.10;99.90
28654;DHT22;24320;56.980;24.336;2023-10-19T04:13:01;2.10;99.90
28654;DHT22;24320;56.980;24.336;2023-10-19T04:15:30;2.20;99.90
28654;DHT22;24320;56.980;24.336;2023-10-19T04:18:01;2.10;99.90
28654;DHT22;24320;56.980;24.336;2023-10-19T04:20:35;2.10;99.90
28654;DHT22;24320;56.980;24.336;2023-10-19T04:23:17;2.10;99.90
28654;DHT22;24320;56.980;24.336;2023-10-19T04:25:44;2.10;99.90
28654;DHT22;24320;56.980;24.336;2023-10-19T04:28:14;2.10;99.90
28654;DHT22;24320;56.980;24.336;2023-10-19T04:30:41;2.10;99.90
28654;DHT22;24320;56.980;24.336;2023-10-19T04:33:08;2.10;99.90
28654;DHT22;24320;56.980;24.336;2023-10-19T04:35:38;2.20;99.90
28654;DHT22;24320;56.980;24.336;2023-10-19T04:38:08;2.20;99.90
28654;DHT22;24320;56.980;24.336;2023-10-19T04:40:35;2.20;99.90
28654;DHT22;24320;56.980;24.336;2023-10-19T04:43:03;2.20;99.90
28654;DHT22;24320;56.980;24.336;2023-10-19T04:45:33;2.10;99.90
28654;DHT22;24320;56.980;24.336;2023-10-19T04:48:00;2.20;99.90
28654;DHT22;24320;56.980;24.336;2023-10-19T04:50:31;2.10;99.90
28654;DHT22;24320;56.980;24.336;2023-10-19T04:52:58;2.10;99.90
28654;DHT22;24320;56.980;24.336;2023-10-19T04:55:25;2.10;99.90
28654;DHT22;24320;56.980;24.336;2023-10-19T04:57:52;2.10;99.90
28654;DHT22;24320;56.980;24.336;2023-10-19T05:00:19;2.00;99.90
28654;DHT22;24320;56.980;24.336;2023-10-19T05:02:47;2.00;99.90
28654;DHT22;24320;56.980;24.336;2023-10-19T05:05:15;1.80;99.90
28654;DHT22;24320;56.980;24.336;2023-10-19T05:07:44;1.80;99.90
28654;DHT22;24320;56.980;24.336;2023-10-19T05:10:11;1.70;99.90
28654;DHT22;24320;56.980;24.336;2023-10-19T05:12:39;1.60;99.90
28654;DHT22;24320;56.980;24.336;2023-10-19T05:15:06;1.50;99.90
28654;DHT22;24320;56.980;24.336;2023-10-19T05:17:33;1.50;99.90
28654;DHT22;24320;56.980;24.336;2023-10-19T05:20:00;1.40;99.90
28654;DHT22;24320;56.980;24.336;2023-10-19T05:22:27;1.40;99.90
28654;DHT22;24320;56.980;24.336;2023-10-19T05:24:57;1.30;99.90
28654;DHT22;24320;56.980;24.336;2023-10-19T05:27:25;1.30;99.90
28654;DHT22;24320;56.980;24.336;2023-10-19T05:29:52;1.30;99.90
28654;DHT22;24320;56.980;24.336;2023-10-19T05:32:19;1.30;99.90
28654;DHT22;24320;56.980;24.336;2023-10-19T05:34:46;1.40;99.90
28654;DHT22;24320;56.980;24.336;2023-10-19T05:37:14;1.50;99.90
28654;DHT22;24320;56.980;24.336;2023-10-19T05:39:43;1.60;99.90
28654;DHT22;24320;56.980;24.336;2023-10-19T05:42:11;1.70;99.90
28654;DHT22;24320;56.980;24.336;2023-10-19T05:44:38;1.80;99.90
28654;DHT22;24320;56.980;24.336;2023-10-19T05:47:05;1.80;99.90
28654;DHT22;24320;56.980;24.336;2023-10-19T05:49:33;1.90;99.90
28654;DHT22;24320;56.980;24.336;2023-10-19T05:52:00;2.00;99.90
28654;DHT22;24320;56.980;24.336;2023-10-19T05:54:30;2.10;99.90
28654;DHT22;24320;56.980;24.336;2023-10-19T05:56:57;2.20;99.90
28654;DHT22;24320;56.980;24.336;2023-10-19T05:59:25;2.30;99.90
28654;DHT22;24320;56.980;24.336;2023-10-19T06:01:53;2.30;99.90
28654;DHT22;24320;56.980;24.336;2023-10-19T06:04:21;2.40;99.90
28654;DHT22;24320;56.980;24.336;2023-10-19T06:06:48;2.50;99.90
28654;DHT22;24320;56.980;24.336;2023-10-19T06:09:16;2.60;99.90
28654;DHT22;24320;56.980;24.336;2023-10-19T06:14:19;2.70;99.90
28654;DHT22;24320;56.980;24.336;2023-10-19T06:16:46;2.80;99.90
28654;DHT22;24320;56.980;24.336;2023-10-19T06:19:13;2.90;99.90
28654;DHT22;24320;56.980;24.336;2023-10-19T06:21:40;3.00;99.90
28654;DHT22;24320;56.980;24.336;2023-10-19T06:24:07;3.10;99.90
28654;DHT22;24320;56.980;24.336;2023-10-19T06:26:37;3.10;99.90
28654;DHT22;24320;56.980;24.336;2023-10-19T06:29:04;3.30;99.90
28654;DHT22;24320;56.980;24.336;2023-10-19T06:31:31;3.40;99.90
28654;DHT22;24320;56.980;24.336;2023-10-19T06:33:59;3.50;99.90
28654;DHT22;24320;56.980;24.336;2023-10-19T06:36:28;3.60;99.90
28654;DHT22;24320;56.980;24.336;2023-10-19T06:38:56;3.70;99.90
28654;DHT22;24320;56.980;24.336;2023-10-19T06:41:23;3.70;99.90
28654;DHT22;24320;56.980;24.336;2023-10-19T06:43:50;3.70;99.90
28654;DHT22;24320;56.980;24.336;2023-10-19T06:46:18;3.70;99.90
28654;DHT22;24320;56.980;24.336;2023-10-19T06:48:45;3.80;99.90
28654;DHT22;24320;56.980;24.336;2023-10-19T06:51:12;3.80;99.90
28654;DHT22;24320;56.980;24.336;2023-10-19T06:53:39;3.90;99.90
28654;DHT22;24320;56.980;24.336;2023-10-19T06:56:06;4.00;99.90
28654;DHT22;24320;56.980;24.336;2023-10-19T06:58:34;4.00;99.90
28654;DHT22;24320;56.980;24.336;2023-10-19T07:01:01;4.00;99.90
28654;DHT22;24320;56.980;24.336;2023-10-19T07:03:34;4.00;99.90
28654;DHT22;24320;56.980;24.336;2023-10-19T07:06:02;4.00;99.90
28654;DHT22;24320;56.980;24.336;2023-10-19T07:08:36;4.00;99.90
28654;DHT22;24320;56.980;24.336;2023-10-19T07:11:03;4.00;99.90
28654;DHT22;24320;56.980;24.336;2023-10-19T07:13:30;4.00;99.90
28654;DHT22;24320;56.980;24.336;2023-10-19T07:16:00;3.90;99.90
28654;DHT22;24320;56.980;24.336;2023-10-19T07:18:28;3.90;99.90
28654;DHT22;24320;56.980;24.336;2023-10-19T07:20:55;3.90;99.90
28654;DHT22;24320;56.980;24.336;2023-10-19T07:23:30;3.90;99.90
28654;DHT22;24320;56.980;24.336;2023-10-19T07:25:58;4.00;99.90
28654;DHT22;24320;56.980;24.336;2023-10-19T07:28:28;4.00;99.90
28654;DHT22;24320;56.980;24.336;2023-10-19T07:30:57;4.00;99.90
28654;DHT22;24320;56.980;24.336;2023-10-19T07:33:26;4.00;99.90
28654;DHT22;24320;56.980;24.336;2023-10-19T07:35:55;4.10;99.90
28654;DHT22;24320;56.980;24.336;2023-10-19T07:38:23;4.10;99.90
28654;DHT22;24320;56.980;24.336;2023-10-19T07:40:51;4.20;99.90
28654;DHT22;24320;56.980;24.336;2023-10-19T07:43:21;4.40;99.90
28654;DHT22;24320;56.980;24.336;2023-10-19T07:45:51;4.50;99.90
28654;DHT22;24320;56.980;24.336;2023-10-19T07:48:19;4.60;99.90
28654;DHT22;24320;56.980;24.336;2023-10-19T07:50:47;4.70;99.90
28654;DHT22;24320;56.980;24.336;2023-10-19T07:53:14;4.70;99.90
28654;DHT22;24320;56.980;24.336;2023-10-19T07:55:41;4.80;99.90
28654;DHT22;24320;56.980;24.336;2023-10-19T07:58:09;4.90;99.90
28654;DHT22;24320;56.980;24.336;2023-10-19T08:00:37;5.00;99.90
28654;DHT22;24320;56.980;24.336;2023-10-19T08:03:05;5.10;99.90
28654;DHT22;24320;56.980;24.336;2023-10-19T08:05:33;5.10;99.90
28654;DHT22;24320;56.980;24.336;2023-10-19T08:08:01;5.10;99.90
28654;DHT22;24320;56.980;24.336;2023-10-19T08:10:31;5.30;99.90
28654;DHT22;24320;56.980;24.336;2023-10-19T08:12:59;5.40;99.90
28654;DHT22;24320;56.980;24.336;2023-10-19T08:15:27;5.50;99.90
28654;DHT22;24320;56.980;24.336;2023-10-19T08:17:57;5.60;99.90
28654;DHT22;24320;56.980;24.336;2023-10-19T08:20:25;5.60;99.90
28654;DHT22;24320;56.980;24.336;2023-10-19T08:22:59;5.50;99.90
28654;DHT22;24320;56.980;24.336;2023-10-19T08:25:28;5.40;99.90
28654;DHT22;24320;56.980;24.336;2023-10-19T08:28:16;5.30;99.90
28654;DHT22;24320;56.980;24.336;2023-10-19T08:30:43;5.30;99.90
28654;DHT22;24320;56.980;24.336;2023-10-19T08:33:12;5.30;99.90
28654;DHT22;24320;56.980;24.336;2023-10-19T08:35:41;5.30;99.90
28654;DHT22;24320;56.980;24.336;2023-10-19T08:38:08;5.30;99.90
28654;DHT22;24320;56.980;24.336;2023-10-19T08:40:38;5.40;99.90
28654;DHT22;24320;56.980;24.336;2023-10-19T08:43:07;5.50;99.90
28654;DHT22;24320;56.980;24.336;2023-10-19T08:45:41;5.50;99.90
28654;DHT22;24320;56.980;24.336;2023-10-19T08:48:09;5.50;99.90
28654;DHT22;24320;56.980;24.336;2023-10-19T08:50:36;5.50;99.90
28654;DHT22;24320;56.980;24.336;2023-10-19T08:53:08;5.60;99.90
28654;DHT22;24320;56.980;24.336;2023-10-19T08:55:36;5.60;99.90
28654;DHT22;24320;56.980;24.336;2023-10-19T08:58:16;5.60;99.90
28654;DHT22;24320;56.980;24.336;2023-10-19T09:00:51;5.60;99.90
28654;DHT22;24320;56.980;24.336;2023-10-19T09:03:24;5.70;99.90
28654;DHT22;24320;56.980;24.336;2023-10-19T09:05:53;5.80;99.90
28654;DHT22;24320;56.980;24.336;2023-10-19T09:08:21;5.80;99.90
28654;DHT22;24320;56.980;24.336;2023-10-19T09:10:50;5.90;99.90
28654;DHT22;24320;56.980;24.336;2023-10-19T09:13:22;6.00;99.90
28654;DHT22;24320;56.980;24.336;2023-10-19T09:15:51;6.00;99.90
28654;DHT22;24320;56.980;24.336;2023-10-19T09:18:25;6.20;99.90
28654;DHT22;24320;56.980;24.336;2023-10-19T09:20:56;6.30;99.90
28654;DHT22;24320;56.980;24.336;2023-10-19T09:23:32;6.30;99.90
28654;DHT22;24320;56.980;24.336;2023-10-19T09:26:01;6.20;99.90
28654;DHT22;24320;56.980;24.336;2023-10-19T09:28:36;6.30;99.90
28654;DHT22;24320;56.980;24.336;2023-10-19T09:31:04;6.30;99.90
28654;DHT22;24320;56.980;24.336;2023-10-19T09:33:33;6.40;99.90
28654;DHT22;24320;56.980;24.336;2023-10-19T09:36:04;6.50;99.90
28654;DHT22;24320;56.980;24.336;2023-10-19T09:38:34;6.50;99.90
28654;DHT22;24320;56.980;24.336;2023-10-19T09:41:01;6.50;99.90
28654;DHT22;24320;56.980;24.336;2023-10-19T09:43:37;6.60;99.90
28654;DHT22;24320;56.980;24.336;2023-10-19T09:46:09;6.60;99.90
28654;DHT22;24320;56.980;24.336;2023-10-19T09:48:40;6.60;99.90
28654;DHT22;24320;56.980;24.336;2023-10-19T09:51:10;6.70;99.90
28654;DHT22;24320;56.980;24.336;2023-10-19T09:53:40;6.70;99.90
28654;DHT22;24320;56.980;24.336;2023-10-19T09:56:15;6.70;99.90
28654;DHT22;24320;56.980;24.336;2023-10-19T09:58:57;6.80;99.90
28654;DHT22;24320;56.980;24.336;2023-10-19T10:01:25;6.80;99.90
28654;DHT22;24320;56.980;24.336;2023-10-19T10:03:53;6.70;99.90
28654;DHT22;24320;56.980;24.336;2023-10-19T10:06:56;6.70;99.90
28654;DHT22;24320;56.980;24.336;2023-10-19T10:09:18;6.80;99.90
28654;DHT22;24320;56.980;24.336;2023-10-19T10:11:52;6.70;99.90
28654;DHT22;24320;56.980;24.336;2023-10-19T10:14:23;6.70;99.90
28654;DHT22;24320;56.980;24.336;2023-10-19T10:17:02;6.70;99.90
28654;DHT22;24320;56.980;24.336;2023-10-19T10:19:29;6.60;99.90
28654;DHT22;24320;56.980;24.336;2023-10-19T10:24:34;6.20;99.90
28654;DHT22;24320;56.980;24.336;2023-10-19T10:27:01;6.10;99.90
28654;DHT22;24320;56.980;24.336;2023-10-19T10:29:30;6.00;99.90
28654;DHT22;24320;56.980;24.336;2023-10-19T10:31:58;5.90;99.90
28654;DHT22;24320;56.980;24.336;2023-10-19T10:37:11;5.80;99.90
28654;DHT22;24320;56.980;24.336;2023-10-19T10:39:40;5.80;99.90
28654;DHT22;24320;56.980;24.336;2023-10-19T10:42:09;5.80;99.90
28654;DHT22;24320;56.980;24.336;2023-10-19T10:44:41;5.80;99.90
28654;DHT22;24320;56.980;24.336;2023-10-19T10:47:10;5.70;99.90
28654;DHT22;24320;56.980;24.336;2023-10-19T10:49:55;5.70;99.90
28654;DHT22;24320;56.980;24.336;2023-10-19T10:52:36;5.70;99.90
28654;DHT22;24320;56.980;24.336;2023-10-19T10:55:10;5.60;99.90
28654;DHT22;24320;56.980;24.336;2023-10-19T10:57:41;5.70;99.90
28654;DHT22;24320;56.980;24.336;2023-10-19T11:00:10;5.70;99.90
28654;DHT22;24320;56.980;24.336;2023-10-19T11:02:44;5.60;99.90
28654;DHT22;24320;56.980;24.336;2023-10-19T11:05:13;5.70;99.90
28654;DHT22;24320;56.980;24.336;2023-10-19T11:10:31;5.70;99.90
28654;DHT22;24320;56.980;24.336;2023-10-19T11:13:06;5.70;99.90
28654;DHT22;24320;56.980;24.336;2023-10-19T11:15:35;5.80;99.90
28654;DHT22;24320;56.980;24.336;2023-10-19T11:18:04;6.00;99.90
28654;DHT22;24320;56.980;24.336;2023-10-19T11:20:31;6.20;99.90
28654;DHT22;24320;56.980;24.336;2023-10-19T11:22:59;6.40;99.90
28654;DHT22;24320;56.980;24.336;2023-10-19T11:25:30;6.60;99.90
28654;DHT22;24320;56.980;24.336;2023-10-19T11:28:00;6.90;99.90
28654;DHT22;24320;56.980;24.336;2023-10-19T11:30:32;7.00;99.90
28654;DHT22;24320;56.980;24.336;2023-10-19T11:33:01;6.90;99.90
28654;DHT22;24320;56.980;24.336;2023-10-19T11:35:30;6.80;99.90
28654;DHT22;24320;56.980;24.336;2023-10-19T11:38:00;6.60;99.90
28654;DHT22;24320;56.980;24.336;2023-10-19T11:40:29;6.40;99.90
28654;DHT22;24320;56.980;24.336;2023-10-19T11:42:56;6.40;99.90
28654;DHT22;24320;56.980;24.336;2023-10-19T11:45:23;6.30;99.90
28654;DHT22;24320;56.980;24.336;2023-10-19T11:47:51;6.30;99.90
28654;DHT22;24320;56.980;24.336;2023-10-19T11:50:19;6.30;99.90
28654;DHT22;24320;56.980;24.336;2023-10-19T11:52:46;6.30;99.90
28654;DHT22;24320;56.980;24.336;2023-10-19T11:55:14;6.30;99.90
28654;DHT22;24320;56.980;24.336;2023-10-19T11:57:44;6.30;99.90
28654;DHT22;24320;56.980;24.336;2023-10-19T12:00:12;6.20;99.90
28654;DHT22;24320;56.980;24.336;2023-10-19T12:02:49;6.30;99.90
28654;DHT22;24320;56.980;24.336;2023-10-19T12:05:17;6.50;99.90
28654;DHT22;24320;56.980;24.336;2023-10-19T12:07:44;6.70;99.90
28654;DHT22;24320;56.980;24.336;2023-10-19T12:10:12;6.90;99.90
28654;DHT22;24320;56.980;24.336;2023-10-19T12:12:40;7.10;99.90
28654;DHT22;24320;56.980;24.336;2023-10-19T12:15:26;7.00;99.90
28654;DHT22;24320;56.980;24.336;2023-10-19T12:17:54;7.10;99.90
28654;DHT22;24320;56.980;24.336;2023-10-19T12:20:21;7.30;99.90
28654;DHT22;24320;56.980;24.336;2023-10-19T12:22:49;7.60;99.90
28654;DHT22;24320;56.980;24.336;2023-10-19T12:25:21;7.90;99.90
28654;DHT22;24320;56.980;24.336;2023-10-19T12:28:15;8.10;99.90
28654;DHT22;24320;56.980;24.336;2023-10-19T12:30:42;8.20;99.90
28654;DHT22;24320;56.980;24.336;2023-10-19T12:33:09;8.20;99.90
28654;DHT22;24320;56.980;24.336;2023-10-19T12:35:43;8.00;99.90
28654;DHT22;24320;56.980;24.336;2023-10-19T12:38:24;7.80;99.90
28654;DHT22;24320;56.980;24.336;2023-10-19T12:40:52;7.40;99.90
28654;DHT22;24320;56.980;24.336;2023-10-19T12:43:20;7.00;99.90
28654;DHT22;24320;56.980;24.336;2023-10-19T12:45:49;6.70;99.90
28654;DHT22;24320;56.980;24.336;2023-10-19T12:48:24;6.50;99.90
28654;DHT22;24320;56.980;24.336;2023-10-19T12:51:01;6.20;99.90
28654;DHT22;24320;56.980;24.336;2023-10-19T12:53:28;6.00;99.90
28654;DHT22;24320;56.980;24.336;2023-10-19T12:55:55;5.90;99.90
28654;DHT22;24320;56.980;24.336;2023-10-19T12:58:23;5.80;99.90
28654;DHT22;24320;56.980;24.336;2023-10-19T13:00:50;5.70;99.90
28654;DHT22;24320;56.980;24.336;2023-10-19T13:03:17;5.60;99.90
28654;DHT22;24320;56.980;24.336;2023-10-19T13:05:45;5.50;99.90
28654;DHT22;24320;56.980;24.336;2023-10-19T13:08:14;5.50;99.90
28654;DHT22;24320;56.980;24.336;2023-10-19T13:10:43;5.50;99.90
28654;DHT22;24320;56.980;24.336;2023-10-19T13:13:12;5.50;99.90
28654;DHT22;24320;56.980;24.336;2023-10-19T13:15:41;5.50;99.90
28654;DHT22;24320;56.980;24.336;2023-10-19T13:18:10;5.60;99.90
28654;DHT22;24320;56.980;24.336;2023-10-19T13:20:38;5.60;99.90
28654;DHT22;24320;56.980;24.336;2023-10-19T13:23:07;5.70;99.90
28654;DHT22;24320;56.980;24.336;2023-10-19T13:25:39;5.70;99.90
28654;DHT22;24320;56.980;24.336;2023-10-19T13:28:09;5.80;99.90
28654;DHT22;24320;56.980;24.336;2023-10-19T13:30:41;5.80;99.90
28654;DHT22;24320;56.980;24.336;2023-10-19T13:33:09;5.80;99.90
28654;DHT22;24320;56.980;24.336;2023-10-19T13:35:37;5.80;99.90
28654;DHT22;24320;56.980;24.336;2023-10-19T13:38:10;5.70;99.90
28654;DHT22;24320;56.980;24.336;2023-10-19T13:40:38;5.70;99.90
28654;DHT22;24320;56.980;24.336;2023-10-19T13:43:07;5.70;99.90
28654;DHT22;24320;56.980;24.336;2023-10-19T13:45:35;5.60;99.90
28654;DHT22;24320;56.980;24.336;2023-10-19T13:48:04;5.60;99.90
28654;DHT22;24320;56.980;24.336;2023-10-19T13:50:32;5.60;99.90
28654;DHT22;24320;56.980;24.336;2023-10-19T13:53:00;5.50;99.90
28654;DHT22;24320;56.980;24.336;2023-10-19T13:55:27;5.40;99.90
28654;DHT22;24320;56.980;24.336;2023-10-19T13:57:55;5.50;99.90
28654;DHT22;24320;56.980;24.336;2023-10-19T14:00:23;5.40;99.90
28654;DHT22;24320;56.980;24.336;2023-10-19T14:03:07;5.40;99.90
28654;DHT22;24320;56.980;24.336;2023-10-19T14:05:39;5.30;99.90
28654;DHT22;24320;56.980;24.336;2023-10-19T14:08:10;5.30;99.90
28654;DHT22;24320;56.980;24.336;2023-10-19T14:10:37;5.20;99.90
28654;DHT22;24320;56.980;24.336;2023-10-19T14:13:09;5.10;99.90
28654;DHT22;24320;56.980;24.336;2023-10-19T14:15:38;5.10;99.90
28654;DHT22;24320;56.980;24.336;2023-10-19T14:18:06;5.00;99.90
28654;DHT22;24320;56.980;24.336;2023-10-19T14:20:33;5.00;99.90
28654;DHT22;24320;56.980;24.336;2023-10-19T14:23:02;4.90;99.90
28654;DHT22;24320;56.980;24.336;2023-10-19T14:25:36;4.90;99.90
28654;DHT22;24320;56.980;24.336;2023-10-19T14:28:04;4.80;99.90
28654;DHT22;24320;56.980;24.336;2023-10-19T14:36:46;4.60;99.90
28654;DHT22;24320;56.980;24.336;2023-10-19T14:39:14;4.60;99.90
28654;DHT22;24320;56.980;24.336;2023-10-19T14:41:43;4.50;99.90
